Terminal Aerodrome Forecast
Issued by NWS Jackson, KY

Home | Current Version | Previous Version | Text Only | Print | Product List | Glossary On
Versions: 1 2 3 4 5 6 7 8 9 10 11 12 13 14 15 16 17 18 19 20 21 22 23 24
167
FTUS43 KJKL 052017 AAB
TAFLOZ
TAF AMD
KLOZ 052017Z 0520/0618 08006KT P6SM SCT025
     FM060000 VRB03KT P6SM FEW015 OVC100
     FM060400 VRB03KT P6SM VCSH OVC050
     FM060500 VRB03KT 5SM -RA BR OVC030
     FM060700 VRB03KT 3SM -RA BR OVC008
     FM060900 VRB03KT 2SM RA OVC004=

USA.gov is the U.S. government's official web portal to all federal, state and local government web resources and services.